sensor_id;sensor_type;location;lat;lon;timestamp;P1;durP1;ratioP1;P2;durP2;ratioP2
68250;SDS011;55066;51.560;4.642;2022-11-21T00:01:51;5.80;;;1.27;;
68250;SDS011;55066;51.560;4.642;2022-11-21T00:04:17;13.67;;;1.83;;
68250;SDS011;55066;51.560;4.642;2022-11-21T00:06:42;5.50;;;1.43;;
68250;SDS011;55066;51.560;4.642;2022-11-21T00:09:07;10.53;;;2.07;;
68250;SDS011;55066;51.560;4.642;2022-11-21T00:11:33;12.97;;;1.70;;
68250;SDS011;55066;51.560;4.642;2022-11-21T00:13:58;9.87;;;1.77;;
68250;SDS011;55066;51.560;4.642;2022-11-21T00:16:23;12.40;;;2.40;;
68250;SDS011;55066;51.560;4.642;2022-11-21T00:18:49;9.45;;;2.00;;
68250;SDS011;55066;51.560;4.642;2022-11-21T00:21:15;12.13;;;2.37;;
68250;SDS011;55066;51.560;4.642;2022-11-21T00:23:42;8.63;;;2.03;;
68250;SDS011;55066;51.560;4.642;2022-11-21T00:26:09;17.10;;;2.60;;
68250;SDS011;55066;51.560;4.642;2022-11-21T00:28:36;7.95;;;1.83;;
68250;SDS011;55066;51.560;4.642;2022-11-21T00:31:02;13.43;;;2.20;;
68250;SDS011;55066;51.560;4.642;2022-11-21T00:33:28;10.43;;;2.10;;
68250;SDS011;55066;51.560;4.642;2022-11-21T00:35:55;11.75;;;2.08;;
68250;SDS011;55066;51.560;4.642;2022-11-21T00:38:20;14.57;;;2.00;;
68250;SDS011;55066;51.560;4.642;2022-11-21T00:40:48;9.73;;;2.30;;
68250;SDS011;55066;51.560;4.642;2022-11-21T00:43:14;13.18;;;2.33;;
68250;SDS011;55066;51.560;4.642;2022-11-21T00:45:39;17.37;;;2.97;;
68250;SDS011;55066;51.560;4.642;2022-11-21T00:48:05;16.33;;;2.43;;
68250;SDS011;55066;51.560;4.642;2022-11-21T00:50:30;9.02;;;2.08;;
68250;SDS011;55066;51.560;4.642;2022-11-21T00:52:56;13.53;;;2.27;;
68250;SDS011;55066;51.560;4.642;2022-11-21T00:55:23;13.15;;;2.38;;
68250;SDS011;55066;51.560;4.642;2022-11-21T00:57:49;13.50;;;2.95;;
68250;SDS011;55066;51.560;4.642;2022-11-21T01:00:15;11.97;;;2.60;;
68250;SDS011;55066;51.560;4.642;2022-11-21T01:02:40;11.32;;;2.40;;
68250;SDS011;55066;51.560;4.642;2022-11-21T01:05:06;9.47;;;2.00;;
68250;SDS011;55066;51.560;4.642;2022-11-21T01:07:31;15.63;;;2.30;;
68250;SDS011;55066;51.560;4.642;2022-11-21T01:09:57;10.07;;;2.00;;
68250;SDS011;55066;51.560;4.642;2022-11-21T01:12:22;10.67;;;2.13;;
68250;SDS011;55066;51.560;4.642;2022-11-21T01:14:48;8.10;;;2.03;;
68250;SDS011;55066;51.560;4.642;2022-11-21T01:17:13;13.97;;;2.23;;
68250;SDS011;55066;51.560;4.642;2022-11-21T01:19:39;14.27;;;2.10;;
68250;SDS011;55066;51.560;4.642;2022-11-21T01:22:07;15.40;;;2.47;;
68250;SDS011;55066;51.560;4.642;2022-11-21T01:24:32;10.63;;;1.98;;
68250;SDS011;55066;51.560;4.642;2022-11-21T01:26:58;16.10;;;2.20;;
68250;SDS011;55066;51.560;4.642;2022-11-21T01:29:23;10.87;;;2.33;;
68250;SDS011;55066;51.560;4.642;2022-11-21T01:31:49;9.63;;;2.25;;
68250;SDS011;55066;51.560;4.642;2022-11-21T01:34:14;18.00;;;2.40;;
68250;SDS011;55066;51.560;4.642;2022-11-21T01:36:40;11.83;;;2.33;;
68250;SDS011;55066;51.560;4.642;2022-11-21T01:39:06;15.68;;;2.60;;
68250;SDS011;55066;51.560;4.642;2022-11-21T01:44:21;11.65;;;2.22;;
68250;SDS011;55066;51.560;4.642;2022-11-21T01:46:49;18.83;;;2.55;;
68250;SDS011;55066;51.560;4.642;2022-11-21T01:49:20;11.50;;;2.70;;
68250;SDS011;55066;51.560;4.642;2022-11-21T01:54:40;12.90;;;2.40;;
68250;SDS011;55066;51.560;4.642;2022-11-21T01:57:17;13.20;;;2.78;;
68250;SDS011;55066;51.560;4.642;2022-11-21T01:59:54;13.48;;;2.70;;
68250;SDS011;55066;51.560;4.642;2022-11-21T02:02:29;11.70;;;2.25;;
68250;SDS011;55066;51.560;4.642;2022-11-21T02:04:58;13.70;;;2.30;;
68250;SDS011;55066;51.560;4.642;2022-11-21T02:07:25;17.52;;;2.10;;
68250;SDS011;55066;51.560;4.642;2022-11-21T02:09:53;10.10;;;2.22;;
68250;SDS011;55066;51.560;4.642;2022-11-21T02:14:58;13.10;;;2.70;;
68250;SDS011;55066;51.560;4.642;2022-11-21T02:17:24;16.23;;;3.47;;
68250;SDS011;55066;51.560;4.642;2022-11-21T02:19:54;15.32;;;2.85;;
68250;SDS011;55066;51.560;4.642;2022-11-21T02:25:06;21.83;;;2.95;;
68250;SDS011;55066;51.560;4.642;2022-11-21T02:27:35;12.07;;;2.88;;
68250;SDS011;55066;51.560;4.642;2022-11-21T02:30:02;22.25;;;2.75;;
68250;SDS011;55066;51.560;4.642;2022-11-21T02:32:37;16.55;;;2.60;;
68250;SDS011;55066;51.560;4.642;2022-11-21T02:35:04;15.23;;;2.70;;
68250;SDS011;55066;51.560;4.642;2022-11-21T02:37:30;16.63;;;3.20;;
68250;SDS011;55066;51.560;4.642;2022-11-21T02:39:57;14.30;;;2.88;;
68250;SDS011;55066;51.560;4.642;2022-11-21T02:42:32;13.88;;;3.13;;
68250;SDS011;55066;51.560;4.642;2022-11-21T02:47:46;14.98;;;2.88;;
68250;SDS011;55066;51.560;4.642;2022-11-21T02:50:17;14.40;;;3.17;;
68250;SDS011;55066;51.560;4.642;2022-11-21T02:52:46;17.10;;;3.10;;
68250;SDS011;55066;51.560;4.642;2022-11-21T02:55:11;11.57;;;2.70;;
68250;SDS011;55066;51.560;4.642;2022-11-21T02:57:39;17.10;;;3.13;;
68250;SDS011;55066;51.560;4.642;2022-11-21T03:00:06;16.25;;;3.10;;
68250;SDS011;55066;51.560;4.642;2022-11-21T03:02:33;13.40;;;2.70;;
68250;SDS011;55066;51.560;4.642;2022-11-21T03:04:59;10.82;;;2.25;;
68250;SDS011;55066;51.560;4.642;2022-11-21T03:07:24;8.43;;;2.33;;
68250;SDS011;55066;51.560;4.642;2022-11-21T03:09:50;8.13;;;2.40;;
68250;SDS011;55066;51.560;4.642;2022-11-21T03:12:15;10.10;;;2.75;;
68250;SDS011;55066;51.560;4.642;2022-11-21T03:14:40;14.23;;;2.53;;
68250;SDS011;55066;51.560;4.642;2022-11-21T03:17:06;12.77;;;2.77;;
68250;SDS011;55066;51.560;4.642;2022-11-21T03:19:31;8.77;;;1.97;;
68250;SDS011;55066;51.560;4.642;2022-11-21T03:21:57;12.83;;;2.47;;
68250;SDS011;55066;51.560;4.642;2022-11-21T03:24:22;11.63;;;2.00;;
68250;SDS011;55066;51.560;4.642;2022-11-21T03:26:48;6.35;;;2.28;;
68250;SDS011;55066;51.560;4.642;2022-11-21T03:29:13;9.63;;;2.33;;
68250;SDS011;55066;51.560;4.642;2022-11-21T03:31:39;9.33;;;1.97;;
68250;SDS011;55066;51.560;4.642;2022-11-21T03:34:05;10.77;;;2.05;;
68250;SDS011;55066;51.560;4.642;2022-11-21T03:36:30;7.67;;;2.00;;
68250;SDS011;55066;51.560;4.642;2022-11-21T03:38:56;12.23;;;2.40;;
68250;SDS011;55066;51.560;4.642;2022-11-21T03:41:22;9.13;;;2.30;;
68250;SDS011;55066;51.560;4.642;2022-11-21T03:43:58;9.98;;;2.50;;
68250;SDS011;55066;51.560;4.642;2022-11-21T03:46:25;8.45;;;2.20;;
68250;SDS011;55066;51.560;4.642;2022-11-21T03:48:50;13.30;;;2.30;;
68250;SDS011;55066;51.560;4.642;2022-11-21T03:51:17;6.93;;;2.10;;
68250;SDS011;55066;51.560;4.642;2022-11-21T03:53:43;8.90;;;2.60;;
68250;SDS011;55066;51.560;4.642;2022-11-21T03:56:08;12.73;;;3.00;;
68250;SDS011;55066;51.560;4.642;2022-11-21T03:58:33;11.15;;;3.13;;
68250;SDS011;55066;51.560;4.642;2022-11-21T04:00:59;11.40;;;2.93;;
68250;SDS011;55066;51.560;4.642;2022-11-21T04:03:24;16.83;;;3.90;;
68250;SDS011;55066;51.560;4.642;2022-11-21T04:05:50;13.80;;;3.13;;
68250;SDS011;55066;51.560;4.642;2022-11-21T04:08:15;17.60;;;3.57;;
68250;SDS011;55066;51.560;4.642;2022-11-21T04:10:50;15.57;;;3.13;;
68250;SDS011;55066;51.560;4.642;2022-11-21T04:13:16;14.18;;;3.00;;
68250;SDS011;55066;51.560;4.642;2022-11-21T04:15:42;17.75;;;2.97;;
68250;SDS011;55066;51.560;4.642;2022-11-21T04:18:08;21.33;;;3.08;;
68250;SDS011;55066;51.560;4.642;2022-11-21T04:20:34;16.05;;;3.25;;
68250;SDS011;55066;51.560;4.642;2022-11-21T04:22:59;16.60;;;3.23;;
68250;SDS011;55066;51.560;4.642;2022-11-21T04:25:25;12.70;;;2.93;;
68250;SDS011;55066;51.560;4.642;2022-11-21T04:27:50;15.40;;;3.03;;
68250;SDS011;55066;51.560;4.642;2022-11-21T04:30:15;14.10;;;3.20;;
68250;SDS011;55066;51.560;4.642;2022-11-21T04:32:41;13.10;;;3.03;;
68250;SDS011;55066;51.560;4.642;2022-11-21T04:35:08;14.02;;;2.97;;
68250;SDS011;55066;51.560;4.642;2022-11-21T04:37:33;10.33;;;2.60;;
68250;SDS011;55066;51.560;4.642;2022-11-21T04:39:59;9.32;;;2.40;;
68250;SDS011;55066;51.560;4.642;2022-11-21T04:42:24;8.93;;;2.20;;
68250;SDS011;55066;51.560;4.642;2022-11-21T04:44:50;11.10;;;2.50;;
68250;SDS011;55066;51.560;4.642;2022-11-21T04:47:15;7.87;;;2.50;;
68250;SDS011;55066;51.560;4.642;2022-11-21T04:49:40;12.93;;;3.23;;
68250;SDS011;55066;51.560;4.642;2022-11-21T04:52:06;15.70;;;3.33;;
68250;SDS011;55066;51.560;4.642;2022-11-21T04:54:31;12.77;;;3.47;;
68250;SDS011;55066;51.560;4.642;2022-11-21T04:56:57;17.50;;;3.80;;
68250;SDS011;55066;51.560;4.642;2022-11-21T04:59:22;14.33;;;3.90;;
68250;SDS011;55066;51.560;4.642;2022-11-21T05:01:47;19.73;;;4.13;;
68250;SDS011;55066;51.560;4.642;2022-11-21T05:04:13;15.87;;;5.10;;
68250;SDS011;55066;51.560;4.642;2022-11-21T05:06:38;14.40;;;4.73;;
68250;SDS011;55066;51.560;4.642;2022-11-21T05:09:04;21.02;;;4.68;;
68250;SDS011;55066;51.560;4.642;2022-11-21T05:11:29;17.03;;;5.53;;
68250;SDS011;55066;51.560;4.642;2022-11-21T05:14:13;21.80;;;5.80;;
68250;SDS011;55066;51.560;4.642;2022-11-21T05:16:38;34.97;;;7.38;;
68250;SDS011;55066;51.560;4.642;2022-11-21T05:19:04;19.23;;;6.73;;
68250;SDS011;55066;51.560;4.642;2022-11-21T05:21:29;19.67;;;6.77;;
68250;SDS011;55066;51.560;4.642;2022-11-21T05:23:55;24.87;;;6.70;;
68250;SDS011;55066;51.560;4.642;2022-11-21T05:26:20;21.83;;;6.80;;
68250;SDS011;55066;51.560;4.642;2022-11-21T05:28:45;20.17;;;6.55;;
68250;SDS011;55066;51.560;4.642;2022-11-21T05:31:12;17.83;;;6.47;;
68250;SDS011;55066;51.560;4.642;2022-11-21T05:33:38;20.33;;;6.20;;
68250;SDS011;55066;51.560;4.642;2022-11-21T05:36:03;17.73;;;6.63;;
68250;SDS011;55066;51.560;4.642;2022-11-21T05:38:29;20.70;;;5.73;;
68250;SDS011;55066;51.560;4.642;2022-11-21T05:40:54;21.20;;;5.83;;
68250;SDS011;55066;51.560;4.642;2022-11-21T05:43:19;13.95;;;5.35;;
68250;SDS011;55066;51.560;4.642;2022-11-21T05:46:03;22.42;;;5.85;;
68250;SDS011;55066;51.560;4.642;2022-11-21T05:48:29;15.70;;;5.27;;
68250;SDS011;55066;51.560;4.642;2022-11-21T05:50:54;19.27;;;5.93;;
68250;SDS011;55066;51.560;4.642;2022-11-21T05:53:19;15.77;;;5.50;;
68250;SDS011;55066;51.560;4.642;2022-11-21T05:55:45;19.40;;;6.30;;
68250;SDS011;55066;51.560;4.642;2022-11-21T05:58:11;20.33;;;5.70;;
68250;SDS011;55066;51.560;4.642;2022-11-21T06:00:37;20.83;;;5.73;;
68250;SDS011;55066;51.560;4.642;2022-11-21T06:03:03;21.65;;;6.13;;
68250;SDS011;55066;51.560;4.642;2022-11-21T06:05:47;19.30;;;5.43;;
68250;SDS011;55066;51.560;4.642;2022-11-21T06:08:12;18.92;;;6.40;;
68250;SDS011;55066;51.560;4.642;2022-11-21T06:10:37;19.23;;;6.20;;
68250;SDS011;55066;51.560;4.642;2022-11-21T06:13:03;21.93;;;6.93;;
68250;SDS011;55066;51.560;4.642;2022-11-21T06:15:46;23.88;;;8.02;;
68250;SDS011;55066;51.560;4.642;2022-11-21T06:18:29;25.20;;;7.85;;
68250;SDS011;55066;51.560;4.642;2022-11-21T06:21:06;20.67;;;7.47;;
68250;SDS011;55066;51.560;4.642;2022-11-21T06:23:33;25.77;;;8.38;;
68250;SDS011;55066;51.560;4.642;2022-11-21T06:26:01;27.98;;;8.50;;
68250;SDS011;55066;51.560;4.642;2022-11-21T06:28:29;34.17;;;9.63;;
68250;SDS011;55066;51.560;4.642;2022-11-21T06:31:01;30.45;;;9.15;;
68250;SDS011;55066;51.560;4.642;2022-11-21T06:33:27;28.73;;;9.57;;
68250;SDS011;55066;51.560;4.642;2022-11-21T06:35:52;32.55;;;9.65;;
68250;SDS011;55066;51.560;4.642;2022-11-21T06:38:18;33.17;;;10.10;;
68250;SDS011;55066;51.560;4.642;2022-11-21T06:40:43;28.00;;;8.40;;
68250;SDS011;55066;51.560;4.642;2022-11-21T06:43:09;30.43;;;8.70;;
68250;SDS011;55066;51.560;4.642;2022-11-21T06:45:34;26.50;;;8.03;;
68250;SDS011;55066;51.560;4.642;2022-11-21T06:48:00;24.97;;;8.77;;
68250;SDS011;55066;51.560;4.642;2022-11-21T06:50:27;33.55;;;8.00;;
68250;SDS011;55066;51.560;4.642;2022-11-21T06:52:56;24.65;;;8.30;;
68250;SDS011;55066;51.560;4.642;2022-11-21T06:55:22;26.00;;;8.60;;
68250;SDS011;55066;51.560;4.642;2022-11-21T06:57:49;26.70;;;8.48;;
68250;SDS011;55066;51.560;4.642;2022-11-21T07:00:14;29.87;;;8.93;;
68250;SDS011;55066;51.560;4.642;2022-11-21T07:02:41;31.30;;;8.93;;
68250;SDS011;55066;51.560;4.642;2022-11-21T07:05:07;29.07;;;9.67;;
68250;SDS011;55066;51.560;4.642;2022-11-21T07:07:32;32.47;;;9.43;;
68250;SDS011;55066;51.560;4.642;2022-11-21T07:09:58;31.65;;;9.75;;
68250;SDS011;55066;51.560;4.642;2022-11-21T07:12:23;35.45;;;9.13;;
68250;SDS011;55066;51.560;4.642;2022-11-21T07:15:08;25.40;;;8.98;;
68250;SDS011;55066;51.560;4.642;2022-11-21T07:17:34;22.80;;;7.93;;
68250;SDS011;55066;51.560;4.642;2022-11-21T07:19:59;21.73;;;7.17;;
68250;SDS011;55066;51.560;4.642;2022-11-21T07:22:24;19.13;;;7.30;;
68250;SDS011;55066;51.560;4.642;2022-11-21T07:24:50;25.13;;;7.70;;
68250;SDS011;55066;51.560;4.642;2022-11-21T07:27:15;29.70;;;8.20;;
68250;SDS011;55066;51.560;4.642;2022-11-21T07:32:31;26.23;;;7.80;;
68250;SDS011;55066;51.560;4.642;2022-11-21T07:34:56;30.00;;;7.63;;
68250;SDS011;55066;51.560;4.642;2022-11-21T07:37:22;23.52;;;8.30;;
68250;SDS011;55066;51.560;4.642;2022-11-21T07:39:47;22.03;;;7.63;;
68250;SDS011;55066;51.560;4.642;2022-11-21T07:42:12;18.63;;;7.37;;
68250;SDS011;55066;51.560;4.642;2022-11-21T07:44:40;26.02;;;7.20;;
68250;SDS011;55066;51.560;4.642;2022-11-21T07:47:05;21.43;;;7.57;;
68250;SDS011;55066;51.560;4.642;2022-11-21T07:49:30;21.20;;;7.60;;
68250;SDS011;55066;51.560;4.642;2022-11-21T07:51:56;23.87;;;7.10;;
68250;SDS011;55066;51.560;4.642;2022-11-21T07:54:22;24.42;;;7.10;;
68250;SDS011;55066;51.560;4.642;2022-11-21T07:56:47;23.40;;;6.73;;
68250;SDS011;55066;51.560;4.642;2022-11-21T07:59:13;21.97;;;6.60;;
68250;SDS011;55066;51.560;4.642;2022-11-21T08:01:38;21.97;;;6.93;;
68250;SDS011;55066;51.560;4.642;2022-11-21T08:04:03;24.40;;;6.33;;
68250;SDS011;55066;51.560;4.642;2022-11-21T08:06:29;25.75;;;6.60;;
68250;SDS011;55066;51.560;4.642;2022-11-21T08:08:54;22.37;;;6.60;;
68250;SDS011;55066;51.560;4.642;2022-11-21T08:11:19;19.30;;;6.30;;
68250;SDS011;55066;51.560;4.642;2022-11-21T08:13:45;17.17;;;6.60;;
68250;SDS011;55066;51.560;4.642;2022-11-21T08:16:10;16.90;;;5.67;;
68250;SDS011;55066;51.560;4.642;2022-11-21T08:18:36;19.98;;;5.95;;
68250;SDS011;55066;51.560;4.642;2022-11-21T08:21:02;15.80;;;6.07;;
68250;SDS011;55066;51.560;4.642;2022-11-21T08:23:28;13.77;;;5.80;;
68250;SDS011;55066;51.560;4.642;2022-11-21T08:25:54;15.75;;;5.80;;
68250;SDS011;55066;51.560;4.642;2022-11-21T08:28:19;20.37;;;6.23;;
68250;SDS011;55066;51.560;4.642;2022-11-21T08:30:45;21.25;;;6.72;;
68250;SDS011;55066;51.560;4.642;2022-11-21T08:33:10;15.23;;;5.97;;
68250;SDS011;55066;51.560;4.642;2022-11-21T08:35:36;17.63;;;5.67;;
68250;SDS011;55066;51.560;4.642;2022-11-21T08:38:02;21.98;;;6.20;;
68250;SDS011;55066;51.560;4.642;2022-11-21T08:40:28;19.53;;;6.33;;
68250;SDS011;55066;51.560;4.642;2022-11-21T08:42:58;22.40;;;6.32;;
68250;SDS011;55066;51.560;4.642;2022-11-21T08:45:24;20.95;;;6.57;;
68250;SDS011;55066;51.560;4.642;2022-11-21T08:47:51;23.63;;;6.83;;
68250;SDS011;55066;51.560;4.642;2022-11-21T08:50:17;18.95;;;6.40;;
68250;SDS011;55066;51.560;4.642;2022-11-21T08:52:42;15.10;;;6.90;;
68250;SDS011;55066;51.560;4.642;2022-11-21T08:55:08;19.75;;;6.70;;
68250;SDS011;55066;51.560;4.642;2022-11-21T08:57:40;18.37;;;6.90;;
68250;SDS011;55066;51.560;4.642;2022-11-21T09:00:06;20.75;;;6.90;;
68250;SDS011;55066;51.560;4.642;2022-11-21T09:02:32;17.92;;;6.78;;
68250;SDS011;55066;51.560;4.642;2022-11-21T09:04:58;21.80;;;7.33;;
68250;SDS011;55066;51.560;4.642;2022-11-21T09:07:24;15.20;;;6.27;;
68250;SDS011;55066;51.560;4.642;2022-11-21T09:09:49;21.02;;;7.63;;
68250;SDS011;55066;51.560;4.642;2022-11-21T09:12:14;28.07;;;8.30;;
68250;SDS011;55066;51.560;4.642;2022-11-21T09:14:40;23.93;;;6.83;;
68250;SDS011;55066;51.560;4.642;2022-11-21T09:17:24;20.67;;;6.97;;
68250;SDS011;55066;51.560;4.642;2022-11-21T09:20:08;23.10;;;7.60;;
68250;SDS011;55066;51.560;4.642;2022-11-21T09:22:33;17.50;;;7.13;;
68250;SDS011;55066;51.560;4.642;2022-11-21T09:24:59;18.97;;;7.03;;
68250;SDS011;55066;51.560;4.642;2022-11-21T09:27:24;20.33;;;7.23;;
68250;SDS011;55066;51.560;4.642;2022-11-21T09:29:49;23.17;;;8.23;;
68250;SDS011;55066;51.560;4.642;2022-11-21T09:32:15;23.27;;;7.80;;
68250;SDS011;55066;51.560;4.642;2022-11-21T09:34:40;23.97;;;7.53;;
68250;SDS011;55066;51.560;4.642;2022-11-21T09:37:06;22.77;;;7.65;;
68250;SDS011;55066;51.560;4.642;2022-11-21T09:39:32;22.10;;;7.55;;
68250;SDS011;55066;51.560;4.642;2022-11-21T09:42:13;19.63;;;7.80;;
68250;SDS011;55066;51.560;4.642;2022-11-21T09:45:07;20.80;;;7.37;;
68250;SDS011;55066;51.560;4.642;2022-11-21T09:47:41;26.27;;;7.50;;
68250;SDS011;55066;51.560;4.642;2022-11-21T09:52:55;16.45;;;6.68;;
68250;SDS011;55066;51.560;4.642;2022-11-21T09:58:04;22.20;;;6.83;;
68250;SDS011;55066;51.560;4.642;2022-11-21T10:00:33;19.80;;;6.45;;
68250;SDS011;55066;51.560;4.642;2022-11-21T10:02:59;17.50;;;5.90;;
68250;SDS011;55066;51.560;4.642;2022-11-21T10:05:32;16.80;;;5.57;;
68250;SDS011;55066;51.560;4.642;2022-11-21T10:08:04;17.65;;;6.10;;
68250;SDS011;55066;51.560;4.642;2022-11-21T10:10:54;18.40;;;6.20;;
68250;SDS011;55066;51.560;4.642;2022-11-21T10:13:31;19.17;;;6.22;;
68250;SDS011;55066;51.560;4.642;2022-11-21T10:16:17;12.13;;;4.60;;
68250;SDS011;55066;51.560;4.642;2022-11-21T10:19:30;19.65;;;5.35;;
68250;SDS011;55066;51.560;4.642;2022-11-21T10:22:01;16.02;;;6.15;;
68250;SDS011;55066;51.560;4.642;2022-11-21T10:29:52;23.27;;;7.00;;
68250;SDS011;55066;51.560;4.642;2022-11-21T10:32:26;16.77;;;5.90;;
68250;SDS011;55066;51.560;4.642;2022-11-21T10:34:57;16.00;;;5.45;;
68250;SDS011;55066;51.560;4.642;2022-11-21T10:37:36;21.70;;;5.63;;
68250;SDS011;55066;51.560;4.642;2022-11-21T10:40:13;19.30;;;5.45;;
68250;SDS011;55066;51.560;4.642;2022-11-21T10:42:56;15.82;;;5.28;;
68250;SDS011;55066;51.560;4.642;2022-11-21T10:45:24;20.23;;;5.60;;
68250;SDS011;55066;51.560;4.642;2022-11-21T10:47:50;23.25;;;6.20;;
68250;SDS011;55066;51.560;4.642;2022-11-21T10:50:20;17.10;;;5.60;;
68250;SDS011;55066;51.560;4.642;2022-11-21T10:53:00;19.00;;;5.65;;
68250;SDS011;55066;51.560;4.642;2022-11-21T10:55:56;17.33;;;5.80;;
68250;SDS011;55066;51.560;4.642;2022-11-21T11:03:49;15.43;;;4.53;;
68250;SDS011;55066;51.560;4.642;2022-11-21T11:06:30;13.27;;;5.03;;
68250;SDS011;55066;51.560;4.642;2022-11-21T11:08:55;17.97;;;5.40;;
68250;SDS011;55066;51.560;4.642;2022-11-21T11:11:21;25.08;;;5.68;;
68250;SDS011;55066;51.560;4.642;2022-11-21T11:13:57;15.97;;;4.47;;
68250;SDS011;55066;51.560;4.642;2022-11-21T11:16:26;19.17;;;4.68;;
68250;SDS011;55066;51.560;4.642;2022-11-21T11:18:55;12.43;;;4.38;;
68250;SDS011;55066;51.560;4.642;2022-11-21T11:21:27;15.65;;;4.00;;
68250;SDS011;55066;51.560;4.642;2022-11-21T11:24:04;10.35;;;3.05;;
68250;SDS011;55066;51.560;4.642;2022-11-21T11:29:17;13.68;;;3.45;;
68250;SDS011;55066;51.560;4.642;2022-11-21T11:34:52;9.50;;;2.85;;
68250;SDS011;55066;51.560;4.642;2022-11-21T11:37:26;11.52;;;3.33;;
68250;SDS011;55066;51.560;4.642;2022-11-21T11:46:32;12.73;;;2.80;;
68250;SDS011;55066;51.560;4.642;2022-11-21T11:52:27;9.75;;;2.00;;
68250;SDS011;55066;51.560;4.642;2022-11-21T11:54:59;10.63;;;3.33;;
68250;SDS011;55066;51.560;4.642;2022-11-21T11:57:29;14.93;;;2.95;;
68250;SDS011;55066;51.560;4.642;2022-11-21T12:00:04;11.15;;;2.75;;
68250;SDS011;55066;51.560;4.642;2022-11-21T12:02:44;8.07;;;2.72;;
68250;SDS011;55066;51.560;4.642;2022-11-21T12:05:32;12.73;;;2.85;;
68250;SDS011;55066;51.560;4.642;2022-11-21T12:10:40;14.02;;;2.55;;
68250;SDS011;55066;51.560;4.642;2022-11-21T12:13:30;8.68;;;2.53;;
68250;SDS011;55066;51.560;4.642;2022-11-21T12:16:01;14.82;;;2.50;;
68250;SDS011;55066;51.560;4.642;2022-11-21T12:18:31;7.50;;;2.20;;
68250;SDS011;55066;51.560;4.642;2022-11-21T12:21:18;9.07;;;2.47;;
68250;SDS011;55066;51.560;4.642;2022-11-21T12:23:50;9.90;;;2.40;;
68250;SDS011;55066;51.560;4.642;2022-11-21T12:39:39;7.63;;;1.67;;
68250;SDS011;55066;51.560;4.642;2022-11-21T12:42:26;7.90;;;2.45;;
68250;SDS011;55066;51.560;4.642;2022-11-21T12:45:32;6.75;;;1.80;;
68250;SDS011;55066;51.560;4.642;2022-11-21T12:57:04;10.07;;;2.00;;
68250;SDS011;55066;51.560;4.642;2022-11-21T12:59:45;7.75;;;2.15;;
68250;SDS011;55066;51.560;4.642;2022-11-21T13:02:27;9.67;;;2.13;;
68250;SDS011;55066;51.560;4.642;2022-11-21T13:04:57;11.25;;;2.00;;
68250;SDS011;55066;51.560;4.642;2022-11-21T13:07:24;7.65;;;2.50;;
68250;SDS011;55066;51.560;4.642;2022-11-21T13:09:53;14.68;;;2.55;;
68250;SDS011;55066;51.560;4.642;2022-11-21T13:15:15;9.33;;;2.70;;
68250;SDS011;55066;51.560;4.642;2022-11-21T13:17:46;10.07;;;2.50;;
68250;SDS011;55066;51.560;4.642;2022-11-21T13:27:54;12.02;;;2.60;;
68250;SDS011;55066;51.560;4.642;2022-11-21T13:36:07;11.48;;;3.05;;
68250;SDS011;55066;51.560;4.642;2022-11-21T13:50:08;14.30;;;4.05;;
68250;SDS011;55066;51.560;4.642;2022-11-21T13:52:48;8.10;;;3.40;;
68250;SDS011;55066;51.560;4.642;2022-11-21T14:01:21;22.17;;;4.20;;
68250;SDS011;55066;51.560;4.642;2022-11-21T14:06:46;8.15;;;3.25;;
68250;SDS011;55066;51.560;4.642;2022-11-21T14:11:57;9.40;;;3.80;;
68250;SDS011;55066;51.560;4.642;2022-11-21T14:14:39;13.07;;;4.18;;
68250;SDS011;55066;51.560;4.642;2022-11-21T14:22:45;10.60;;;3.80;;
68250;SDS011;55066;51.560;4.642;2022-11-21T14:25:18;12.82;;;3.72;;
68250;SDS011;55066;51.560;4.642;2022-11-21T14:27:46;14.70;;;4.32;;
68250;SDS011;55066;51.560;4.642;2022-11-21T14:30:29;9.02;;;3.47;;
68250;SDS011;55066;51.560;4.642;2022-11-21T14:32:54;11.13;;;3.65;;
68250;SDS011;55066;51.560;4.642;2022-11-21T14:35:21;11.10;;;4.00;;
68250;SDS011;55066;51.560;4.642;2022-11-21T14:37:48;10.85;;;3.20;;
68250;SDS011;55066;51.560;4.642;2022-11-21T14:40:21;9.77;;;3.45;;
68250;SDS011;55066;51.560;4.642;2022-11-21T14:42:48;14.10;;;3.65;;
68250;SDS011;55066;51.560;4.642;2022-11-21T14:45:15;11.75;;;3.08;;
68250;SDS011;55066;51.560;4.642;2022-11-21T14:47:48;8.07;;;2.95;;
68250;SDS011;55066;51.560;4.642;2022-11-21T14:50:48;9.05;;;3.08;;
68250;SDS011;55066;51.560;4.642;2022-11-21T14:53:09;8.25;;;2.88;;
68250;SDS011;55066;51.560;4.642;2022-11-21T14:55:36;9.52;;;2.30;;
68250;SDS011;55066;51.560;4.642;2022-11-21T14:58:02;10.20;;;2.88;;
68250;SDS011;55066;51.560;4.642;2022-11-21T15:00:30;14.60;;;3.20;;
68250;SDS011;55066;51.560;4.642;2022-11-21T15:02:56;6.97;;;2.75;;
68250;SDS011;55066;51.560;4.642;2022-11-21T15:05:29;9.53;;;2.50;;
68250;SDS011;55066;51.560;4.642;2022-11-21T15:07:57;14.38;;;2.85;;
68250;SDS011;55066;51.560;4.642;2022-11-21T15:10:24;14.10;;;3.70;;
68250;SDS011;55066;51.560;4.642;2022-11-21T15:13:28;10.90;;;2.60;;
68250;SDS011;55066;51.560;4.642;2022-11-21T15:15:49;13.20;;;3.25;;
68250;SDS011;55066;51.560;4.642;2022-11-21T15:20:47;14.02;;;3.30;;
68250;SDS011;55066;51.560;4.642;2022-11-21T15:23:33;6.53;;;2.58;;
68250;SDS011;55066;51.560;4.642;2022-11-21T15:26:00;11.95;;;3.60;;
68250;SDS011;55066;51.560;4.642;2022-11-21T15:28:26;14.77;;;3.67;;
68250;SDS011;55066;51.560;4.642;2022-11-21T15:33:54;16.40;;;4.00;;
68250;SDS011;55066;51.560;4.642;2022-11-21T15:36:22;11.70;;;3.67;;
68250;SDS011;55066;51.560;4.642;2022-11-21T15:38:52;12.73;;;3.80;;
68250;SDS011;55066;51.560;4.642;2022-11-21T15:41:24;10.60;;;3.03;;
68250;SDS011;55066;51.560;4.642;2022-11-21T15:43:52;18.00;;;3.60;;
68250;SDS011;55066;51.560;4.642;2022-11-21T15:48:49;16.63;;;4.27;;
68250;SDS011;55066;51.560;4.642;2022-11-21T15:51:17;17.27;;;4.20;;
68250;SDS011;55066;51.560;4.642;2022-11-21T15:53:43;11.98;;;3.88;;
68250;SDS011;55066;51.560;4.642;2022-11-21T15:56:13;14.77;;;3.97;;
68250;SDS011;55066;51.560;4.642;2022-11-21T15:58:40;11.48;;;3.33;;
68250;SDS011;55066;51.560;4.642;2022-11-21T16:01:10;16.05;;;3.85;;
68250;SDS011;55066;51.560;4.642;2022-11-21T16:03:49;14.88;;;3.40;;
68250;SDS011;55066;51.560;4.642;2022-11-21T16:06:17;14.60;;;3.70;;
68250;SDS011;55066;51.560;4.642;2022-11-21T16:08:43;15.50;;;3.50;;
68250;SDS011;55066;51.560;4.642;2022-11-21T16:11:14;11.93;;;3.03;;
68250;SDS011;55066;51.560;4.642;2022-11-21T16:13:46;14.30;;;3.43;;
68250;SDS011;55066;51.560;4.642;2022-11-21T16:16:12;13.50;;;3.90;;
68250;SDS011;55066;51.560;4.642;2022-11-21T16:18:38;12.93;;;3.67;;
68250;SDS011;55066;51.560;4.642;2022-11-21T16:21:06;16.00;;;3.73;;
68250;SDS011;55066;51.560;4.642;2022-11-21T16:23:32;16.52;;;3.72;;
68250;SDS011;55066;51.560;4.642;2022-11-21T16:25:58;11.40;;;3.60;;
68250;SDS011;55066;51.560;4.642;2022-11-21T16:28:23;9.65;;;2.90;;
68250;SDS011;55066;51.560;4.642;2022-11-21T16:30:49;17.17;;;3.47;;
68250;SDS011;55066;51.560;4.642;2022-11-21T16:33:14;19.40;;;4.00;;
68250;SDS011;55066;51.560;4.642;2022-11-21T16:35:40;12.90;;;3.53;;
68250;SDS011;55066;51.560;4.642;2022-11-21T16:38:06;10.87;;;3.70;;
68250;SDS011;55066;51.560;4.642;2022-11-21T16:40:32;10.45;;;3.88;;
68250;SDS011;55066;51.560;4.642;2022-11-21T16:43:05;12.07;;;3.93;;
68250;SDS011;55066;51.560;4.642;2022-11-21T16:45:35;14.98;;;3.38;;
68250;SDS011;55066;51.560;4.642;2022-11-21T16:48:02;13.15;;;3.72;;
68250;SDS011;55066;51.560;4.642;2022-11-21T16:50:28;14.07;;;3.42;;
68250;SDS011;55066;51.560;4.642;2022-11-21T16:52:53;9.80;;;3.03;;